ZGOW

Shantou Waisha Airport

Shantou, China
TAF ZGOW 170903Z 1712/1812 21003MPS 6000 FEW015 SCT050 TX34/1807Z TN26/1722Z TEMPO 1805/1811 VRB09G15MPS 2100 TSRA SCT011 SCT026CB BKN033
Issued Valid From Valid To
Aug-17 @ 09:03 UTC
(6 hours ago)
Aug-17 @ 12:00 UTC
(3 hours ago)
Aug-18 @ 12:00 UTC
(in 21 hours)
Aug-17 @ 12:00 to Aug-18 @ 12:00
TAF ZGOW 170903Z 1712/1812 21003MPS 6000 FEW015 SCT050 TX34/1807Z TN26/1722Z
Wind Visibility Clouds
210° at 6 knots 6,003 meters
  • Few at 1,500' AGL
  • Scattered at 5,000' AGL
Temporary Aug-18 @ 05:00 to Aug-18 @ 11:00
TEMPO 1805/1811 VRB09G15MPS 2100 TSRA SCT011 SCT026CB BKN033
Wind Visibility Clouds Conditions
Variable at 17 knots
 Gusting to 29 knots
2,092 meters
  • Scattered at 1,100' AGL
  • Scattered at 2,600' AGL
  • Broken at 3,300' AGL
  • Thunderstorm
  • Rain
TAF ZGOW 170903Z 1712/1812 21003MPS 6000 FEW015 SCT050 TX34/1807Z TN26/1722Z TEMPO 1805/1811 VRB09G15MPS 2100 TSRA SCT011 SCT026CB BKN033
Issued Aug-17 @ 09:03 UTC
(6 hours ago)
Valid From Aug-17 @ 12:00 UTC
(3 hours ago)
Valid To Aug-18 @ 12:00 UTC
(in 21 hours)
Aug-17 @ 12:00 - Aug-18 @ 12:00
Wind Visibility
210° at 6 knots 6,003 meters
Clouds
  • Few at 1,500' AGL
  • Scattered at 5,000' AGL
Temporary Aug-18 @ 05:00 - Aug-18 @ 11:00
Wind Visibility
Variable at 17 knots
 Gusting to 29 knots
2,092 meters
Clouds
  • Scattered at 1,100' AGL
  • Scattered at 2,600' AGL
  • Broken at 3,300' AGL
Conditions
  • Thunderstorm
  • Rain